Time;durP1;ratioP1;P1;durP2;ratioP2;P2;SDS_P1;SDS_P2;PMS_P1;PMS_P2;Temp;Humidity;BMP_temperature;BMP_pressure;BME280_temperature;BME280_humidity;BME280_pressure;Samples;Min_cycle;Max_cycle;Signal;HPM_P1;HPM_P2
2022/07/07 00:00:59;;;;;;;;;;;15.80;75.70;;;;;;4158156;28;19917;-84
2022/07/07 00:03:23;;;;;;;;;;;15.80;76.30;;;;;;4172133;28;19916;-86
2022/07/07 00:05:44;;;;;;;;;;;15.80;76.20;;;;;;4171911;28;20370;-86
2022/07/07 00:08:05;;;;;;;;;;;15.80;76.40;;;;;;4173070;28;19949;-84
2022/07/07 00:10:26;;;;;;;;;;;15.80;77.20;;;;;;4158924;28;20003;-86
2022/07/07 00:12:48;;;;;;;;;;;15.80;76.20;;;;;;4168197;28;20418;-85
2022/07/07 00:15:09;;;;;;;;;;;15.80;76.60;;;;;;4175352;28;19919;-86
2022/07/07 00:17:30;;;;;;;;;;;15.80;76.80;;;;;;4160484;28;20004;-85
2022/07/07 00:19:50;;;;;;;;;;;15.80;76.80;;;;;;4165028;28;19908;-87
2022/07/07 00:22:11;;;;;;;;;;;15.80;77.20;;;;;;4169764;28;19908;-85
2022/07/07 00:24:32;;;;;;;;;;;15.80;76.80;;;;;;4171478;28;20294;-84
2022/07/07 00:26:53;;;;;;;;;;;15.80;76.50;;;;;;4172871;28;20001;-85
2022/07/07 00:29:14;;;;;;;;;;;15.80;77.00;;;;;;4173685;28;20008;-85
2022/07/07 00:31:35;;;;;;;;;;;15.90;76.70;;;;;;4159028;28;20383;-86
2022/07/07 00:33:56;;;;;;;;;;;15.90;76.00;;;;;;4169384;28;19917;-88
2022/07/07 00:36:17;;;;;;;;;;;15.80;77.20;;;;;;4165792;28;19917;-85
2022/07/07 00:38:40;;;;;;;;;;;15.90;77.60;;;;;;4155309;28;19924;-86
2022/07/07 00:41:02;;;;;;;;;;;15.90;76.70;;;;;;4169308;28;20453;-85
2022/07/07 00:43:23;;;;;;;;;;;15.80;77.40;;;;;;4167933;28;21996;-87
2022/07/07 00:45:47;;;;;;;;;;;15.90;77.90;;;;;;4171450;28;19938;-84
2022/07/07 00:48:08;;;;;;;;;;;15.90;77.10;;;;;;4167309;28;19924;-87
2022/07/07 00:50:29;;;;;;;;;;;15.90;77.00;;;;;;4157650;28;19909;-86
2022/07/07 00:52:50;;;;;;;;;;;15.90;76.80;;;;;;4158060;28;20063;-85
2022/07/07 00:55:11;;;;;;;;;;;15.90;76.20;;;;;;4172202;28;19909;-86
2022/07/07 00:57:41;;;;;;;;;;;15.90;77.20;;;;;;4158595;28;19940;-85
2022/07/07 01:00:11;;;;;;;;;;;15.90;77.70;;;;;;4157056;28;19963;-86
2022/07/07 01:02:32;;;;;;;;;;;15.90;76.40;;;;;;4157347;28;19913;-88
2022/07/07 01:04:53;;;;;;;;;;;15.90;77.00;;;;;;4159989;28;19921;-85
2022/07/07 01:07:14;;;;;;;;;;;15.90;76.00;;;;;;4173825;28;20007;-87
2022/07/07 01:09:35;;;;;;;;;;;15.90;76.40;;;;;;4172737;28;19963;-85
2022/07/07 01:11:57;;;;;;;;;;;15.90;77.00;;;;;;4167968;28;20372;-86
2022/07/07 01:14:18;;;;;;;;;;;15.90;77.10;;;;;;4157457;28;19913;-85
2022/07/07 01:16:39;;;;;;;;;;;15.90;77.30;;;;;;4170604;28;19992;-85
2022/07/07 01:19:00;;;;;;;;;;;16.00;77.30;;;;;;4156045;28;19910;-86
2022/07/07 01:21:21;;;;;;;;;;;16.00;77.10;;;;;;4167138;28;19909;-86
2022/07/07 01:23:42;;;;;;;;;;;16.00;78.00;;;;;;4169329;28;19913;-85
2022/07/07 01:26:03;;;;;;;;;;;16.00;76.60;;;;;;4154970;28;20004;-86
2022/07/07 01:28:24;;;;;;;;;;;15.90;76.70;;;;;;4171620;28;20269;-85
2022/07/07 01:30:45;;;;;;;;;;;16.00;77.40;;;;;;4167733;28;19912;-84
2022/07/07 01:33:06;;;;;;;;;;;16.00;76.90;;;;;;4157925;28;19913;-85
2022/07/07 01:35:27;;;;;;;;;;;16.00;77.20;;;;;;4170749;28;19908;-85
2022/07/07 01:37:48;;;;;;;;;;;16.00;76.50;;;;;;4166326;28;19913;-85
2022/07/07 01:40:09;;;;;;;;;;;16.00;76.70;;;;;;4168544;28;19912;-85
2022/07/07 01:42:29;;;;;;;;;;;16.00;76.50;;;;;;4160866;28;20489;-84
2022/07/07 01:44:51;;;;;;;;;;;16.10;76.40;;;;;;4172233;28;19913;-85
2022/07/07 01:47:13;;;;;;;;;;;16.00;76.10;;;;;;4178021;28;20266;-85
2022/07/07 01:49:33;;;;;;;;;;;16.00;76.50;;;;;;4163638;28;20329;-85
2022/07/07 01:51:54;;;;;;;;;;;16.00;76.00;;;;;;4159613;28;19909;-86
2022/07/07 01:54:15;;;;;;;;;;;16.00;76.10;;;;;;4170466;28;19923;-85
2022/07/07 01:56:36;;;;;;;;;;;16.10;76.60;;;;;;4178695;28;19922;-84
2022/07/07 01:58:57;;;;;;;;;;;16.10;77.00;;;;;;4173102;28;20491;-85
2022/07/07 02:01:18;;;;;;;;;;;16.10;76.60;;;;;;4175567;28;19913;-85
2022/07/07 02:03:39;;;;;;;;;;;16.10;75.80;;;;;;4172556;28;19912;-86
2022/07/07 02:06:00;;;;;;;;;;;16.00;76.10;;;;;;4161850;28;20037;-85
2022/07/07 02:08:21;;;;;;;;;;;16.10;76.50;;;;;;4159458;28;20628;-85
2022/07/07 02:13:22;;;;;;;;;;;16.10;75.50;;;;;;4171689;28;19909;-84
2022/07/07 02:15:43;;;;;;;;;;;16.10;75.60;;;;;;4173390;28;20002;-84
2022/07/07 02:18:04;;;;;;;;;;;16.10;76.10;;;;;;4164012;28;20404;-85
2022/07/07 02:20:25;;;;;;;;;;;16.10;76.70;;;;;;4158118;28;20468;-86
2022/07/07 02:22:46;;;;;;;;;;;16.10;76.60;;;;;;4170964;28;19916;-84
2022/07/07 02:25:07;;;;;;;;;;;16.10;76.10;;;;;;4166248;28;19912;-84
2022/07/07 02:27:28;;;;;;;;;;;16.10;76.20;;;;;;4162271;28;19952;-85
2022/07/07 02:29:48;;;;;;;;;;;16.10;75.90;;;;;;4174233;28;20302;-84
2022/07/07 02:32:09;;;;;;;;;;;16.10;75.70;;;;;;4178619;28;19913;-84
2022/07/07 02:34:30;;;;;;;;;;;16.10;75.60;;;;;;4175520;28;19925;-85
2022/07/07 02:36:51;;;;;;;;;;;16.10;76.00;;;;;;4173652;28;19923;-85
2022/07/07 02:39:12;;;;;;;;;;;16.00;76.20;;;;;;4175752;28;20293;-84
2022/07/07 02:41:33;;;;;;;;;;;16.00;76.20;;;;;;4171771;28;20003;-85
2022/07/07 02:43:54;;;;;;;;;;;16.10;76.20;;;;;;4159000;28;19943;-85
2022/07/07 02:46:15;;;;;;;;;;;16.00;75.90;;;;;;4166699;28;19913;-84
2022/07/07 02:48:36;;;;;;;;;;;16.10;76.00;;;;;;4153004;28;20674;-85
2022/07/07 02:50:56;;;;;;;;;;;16.10;76.00;;;;;;4163133;28;19917;-84
2022/07/07 02:53:18;;;;;;;;;;;16.10;75.50;;;;;;4178090;28;19917;-84
2022/07/07 02:55:39;;;;;;;;;;;16.10;75.50;;;;;;4176748;28;19967;-84
2022/07/07 02:58:00;;;;;;;;;;;16.10;75.50;;;;;;4176460;28;19950;-85
2022/07/07 03:00:21;;;;;;;;;;;16.10;75.60;;;;;;4175341;28;19912;-85
2022/07/07 03:02:42;;;;;;;;;;;16.10;75.30;;;;;;4161692;28;19912;-85
2022/07/07 03:05:03;;;;;;;;;;;16.10;75.60;;;;;;4180221;28;19922;-85
2022/07/07 03:07:24;;;;;;;;;;;16.00;75.60;;;;;;4174176;28;20538;-85
2022/07/07 03:09:46;;;;;;;;;;;16.00;75.40;;;;;;4176214;28;19924;-85
2022/07/07 03:12:09;;;;;;;;;;;16.10;75.40;;;;;;4162787;28;19917;-85
2022/07/07 03:14:33;;;;;;;;;;;16.10;75.20;;;;;;4164185;28;20331;-85
2022/07/07 03:16:54;;;;;;;;;;;16.00;75.80;;;;;;4172820;28;19999;-85
2022/07/07 03:19:14;;;;;;;;;;;16.10;75.70;;;;;;4177257;28;19917;-85
2022/07/07 03:21:35;;;;;;;;;;;16.10;76.10;;;;;;4178032;28;20266;-86
2022/07/07 03:23:56;;;;;;;;;;;16.00;75.60;;;;;;4174590;28;19939;-85
2022/07/07 03:26:17;;;;;;;;;;;16.10;75.60;;;;;;4172783;28;19935;-85
2022/07/07 03:28:38;;;;;;;;;;;16.10;75.70;;;;;;4161405;28;19917;-86
2022/07/07 03:30:59;;;;;;;;;;;16.10;76.10;;;;;;4173011;28;19904;-84
2022/07/07 03:33:20;;;;;;;;;;;16.10;76.00;;;;;;4174960;28;19913;-86
2022/07/07 03:35:41;;;;;;;;;;;16.10;75.60;;;;;;4165016;28;19955;-84
2022/07/07 03:38:02;;;;;;;;;;;16.10;76.10;;;;;;4176079;28;19905;-85
2022/07/07 03:40:23;;;;;;;;;;;16.00;76.20;;;;;;4161261;28;19917;-85
2022/07/07 03:42:44;;;;;;;;;;;16.10;76.10;;;;;;4174599;28;21710;-84
2022/07/07 03:45:05;;;;;;;;;;;16.10;75.90;;;;;;4160628;28;19917;-85
2022/07/07 03:47:26;;;;;;;;;;;16.10;75.60;;;;;;4171072;28;20392;-83
2022/07/07 03:49:47;;;;;;;;;;;16.10;75.50;;;;;;4164373;28;19962;-84
2022/07/07 03:52:08;;;;;;;;;;;16.10;75.40;;;;;;4178587;28;19909;-84
2022/07/07 03:54:29;;;;;;;;;;;16.10;75.50;;;;;;4176586;28;19917;-85
2022/07/07 03:56:50;;;;;;;;;;;16.10;75.50;;;;;;4157943;28;19983;-84
2022/07/07 03:59:11;;;;;;;;;;;16.10;75.20;;;;;;4174265;28;19917;-84
2022/07/07 04:01:32;;;;;;;;;;;16.20;75.40;;;;;;4173570;28;20019;-87
2022/07/07 04:03:52;;;;;;;;;;;16.10;75.50;;;;;;4158530;28;19912;-84
2022/07/07 04:06:13;;;;;;;;;;;16.20;75.50;;;;;;4172515;28;20169;-83
2022/07/07 04:08:34;;;;;;;;;;;16.10;75.80;;;;;;4174135;28;20381;-86
2022/07/07 04:10:55;;;;;;;;;;;16.10;75.60;;;;;;4158269;28;20373;-86
2022/07/07 04:13:16;;;;;;;;;;;16.10;75.60;;;;;;4158168;28;19920;-87
2022/07/07 04:15:37;;;;;;;;;;;16.10;75.90;;;;;;4174292;28;19924;-86
2022/07/07 04:17:58;;;;;;;;;;;16.20;75.70;;;;;;4173278;28;19917;-85
2022/07/07 04:20:19;;;;;;;;;;;16.10;76.00;;;;;;4157664;28;19909;-85
2022/07/07 04:22:40;;;;;;;;;;;16.20;75.80;;;;;;4174085;28;19914;-85
2022/07/07 04:25:01;;;;;;;;;;;16.10;75.70;;;;;;4170152;28;19917;-85
2022/07/07 04:27:22;;;;;;;;;;;16.10;75.80;;;;;;4173988;28;19966;-85
2022/07/07 04:29:43;;;;;;;;;;;16.10;76.00;;;;;;4157774;28;19952;-84
2022/07/07 04:32:04;;;;;;;;;;;16.10;75.90;;;;;;4162079;28;20040;-85
2022/07/07 04:34:25;;;;;;;;;;;16.10;76.40;;;;;;4174119;28;19999;-87
2022/07/07 04:36:46;;;;;;;;;;;16.10;76.10;;;;;;4159500;28;19909;-86
2022/07/07 04:39:08;;;;;;;;;;;16.10;76.10;;;;;;4165712;28;20385;-85
2022/07/07 04:41:29;;;;;;;;;;;16.10;76.60;;;;;;4171499;28;19930;-85
2022/07/07 04:43:50;;;;;;;;;;;16.10;76.90;;;;;;4172121;28;19917;-84
2022/07/07 04:46:14;;;;;;;;;;;16.10;76.90;;;;;;4168000;28;19917;-88
2022/07/07 04:48:35;;;;;;;;;;;16.00;76.80;;;;;;4172047;28;20008;-86
2022/07/07 04:50:56;;;;;;;;;;;16.00;76.90;;;;;;4158177;28;20450;-84
2022/07/07 04:53:17;;;;;;;;;;;16.00;76.80;;;;;;4175516;28;19909;-85
2022/07/07 04:55:38;;;;;;;;;;;16.00;76.80;;;;;;4164242;28;19917;-85
2022/07/07 04:57:59;;;;;;;;;;;16.00;77.00;;;;;;4176600;28;19936;-88
2022/07/07 05:00:19;;;;;;;;;;;16.00;77.00;;;;;;4176674;28;19982;-85
2022/07/07 05:02:40;;;;;;;;;;;16.00;77.00;;;;;;4177903;28;19924;-84
2022/07/07 05:05:01;;;;;;;;;;;16.00;77.00;;;;;;4161430;28;19935;-85
2022/07/07 05:07:22;;;;;;;;;;;16.10;77.40;;;;;;4156870;28;19909;-83
2022/07/07 05:09:43;;;;;;;;;;;16.10;77.40;;;;;;4174831;28;19920;-85
2022/07/07 05:12:04;;;;;;;;;;;16.10;77.40;;;;;;4179559;28;19941;-86
2022/07/07 05:14:25;;;;;;;;;;;16.10;77.30;;;;;;4179600;28;20331;-85
2022/07/07 05:16:46;;;;;;;;;;;16.10;77.30;;;;;;4171938;28;19920;-85
2022/07/07 05:19:09;;;;;;;;;;;16.20;77.30;;;;;;4178107;28;19921;-83
2022/07/07 05:21:30;;;;;;;;;;;16.20;77.20;;;;;;4162349;28;20043;-86
2022/07/07 05:23:50;;;;;;;;;;;16.20;76.90;;;;;;4173436;28;19996;-87
2022/07/07 05:26:12;;;;;;;;;;;16.30;77.10;;;;;;4174795;28;19931;-85
2022/07/07 05:28:33;;;;;;;;;;;16.30;77.20;;;;;;4187320;28;19923;-89
2022/07/07 05:30:56;;;;;;;;;;;16.30;76.80;;;;;;4176855;28;19917;-85
2022/07/07 05:33:17;;;;;;;;;;;16.30;76.80;;;;;;4163975;28;20003;-89
2022/07/07 05:35:38;;;;;;;;;;;16.30;76.80;;;;;;4177308;28;19974;-85
2022/07/07 05:37:59;;;;;;;;;;;16.30;76.50;;;;;;4177159;28;19954;-85
2022/07/07 05:40:22;;;;;;;;;;;16.30;76.40;;;;;;4178481;28;19909;-86
2022/07/07 05:42:45;;;;;;;;;;;16.30;76.30;;;;;;4162607;28;19917;-85
2022/07/07 05:45:06;;;;;;;;;;;16.30;76.30;;;;;;4165652;28;19959;-83
2022/07/07 05:47:27;;;;;;;;;;;16.30;76.30;;;;;;4172706;28;20348;-83
2022/07/07 05:49:48;;;;;;;;;;;16.30;76.30;;;;;;4156563;28;19920;-87
2022/07/07 05:52:09;;;;;;;;;;;16.30;76.20;;;;;;4172155;28;19916;-87
2022/07/07 05:54:30;;;;;;;;;;;16.30;76.10;;;;;;4177894;28;19920;-87
2022/07/07 05:56:51;;;;;;;;;;;16.30;76.30;;;;;;4162775;28;19917;-85
2022/07/07 05:59:12;;;;;;;;;;;16.30;76.10;;;;;;4159742;28;19996;-84
2022/07/07 06:01:33;;;;;;;;;;;16.30;75.90;;;;;;4176223;28;19909;-86
2022/07/07 06:03:54;;;;;;;;;;;16.30;75.90;;;;;;4174673;28;20007;-84
2022/07/07 06:06:14;;;;;;;;;;;16.30;75.90;;;;;;4173336;28;19916;-90
2022/07/07 06:08:35;;;;;;;;;;;16.30;75.60;;;;;;4163789;28;19917;-85
2022/07/07 06:10:56;;;;;;;;;;;16.30;75.50;;;;;;4176094;28;19940;-86
2022/07/07 06:13:17;;;;;;;;;;;16.30;75.50;;;;;;4172807;28;19972;-86
2022/07/07 06:15:38;;;;;;;;;;;16.30;75.40;;;;;;4174604;28;19939;-84
2022/07/07 06:18:03;;;;;;;;;;;16.30;75.40;;;;;;4159237;28;19909;-87
2022/07/07 06:20:27;;;;;;;;;;;16.30;75.40;;;;;;4163017;28;19913;-85
2022/07/07 06:22:50;;;;;;;;;;;16.40;75.40;;;;;;4164204;28;20004;-86
2022/07/07 06:25:11;;;;;;;;;;;16.40;75.60;;;;;;4166333;28;19928;-83
2022/07/07 06:27:40;;;;;;;;;;;16.50;75.70;;;;;;4174577;28;19909;-85
2022/07/07 06:30:08;;;;;;;;;;;16.40;75.90;;;;;;4172511;28;19917;-87
2022/07/07 06:32:32;;;;;;;;;;;16.40;75.50;;;;;;4161280;28;19980;-86
2022/07/07 06:34:53;;;;;;;;;;;16.40;75.60;;;;;;4162694;28;20613;-87
2022/07/07 06:37:14;;;;;;;;;;;16.50;75.30;;;;;;4174861;28;19962;-86
2022/07/07 06:39:35;;;;;;;;;;;16.50;75.10;;;;;;4172077;28;19956;-84
2022/07/07 06:41:56;;;;;;;;;;;16.50;75.10;;;;;;4160210;28;19917;-86
2022/07/07 06:44:23;;;;;;;;;;;16.50;75.10;;;;;;4162912;28;19941;-89
2022/07/07 06:46:46;;;;;;;;;;;16.50;74.90;;;;;;4159303;28;20015;-86
2022/07/07 06:51:19;;;;;;;;;;;16.50;74.50;;;;;;4218682;22;19935;-85
2022/07/07 06:53:40;;;;;;;;;;;16.60;74.60;;;;;;4165118;28;19913;-86
2022/07/07 06:56:00;;;;;;;;;;;16.60;74.80;;;;;;4175566;28;20544;-83
2022/07/07 06:58:21;;;;;;;;;;;16.60;74.90;;;;;;4172769;28;19943;-87
2022/07/07 07:00:42;;;;;;;;;;;16.60;74.70;;;;;;4177849;28;19920;-86
2022/07/07 07:03:04;;;;;;;;;;;16.60;74.30;;;;;;4161885;28;20571;-85
2022/07/07 07:05:25;;;;;;;;;;;16.60;74.20;;;;;;4164842;28;19920;-86
2022/07/07 07:07:46;;;;;;;;;;;16.60;73.40;;;;;;4177644;28;19935;-85
2022/07/07 07:10:08;;;;;;;;;;;16.60;73.30;;;;;;4179851;28;19924;-86
2022/07/07 07:12:29;;;;;;;;;;;16.60;73.20;;;;;;4162530;28;19909;-85
2022/07/07 07:14:50;;;;;;;;;;;16.70;73.20;;;;;;4182205;28;19915;-85
2022/07/07 07:17:12;;;;;;;;;;;16.60;73.30;;;;;;4176653;28;19915;-86
2022/07/07 07:19:32;;;;;;;;;;;16.60;72.60;;;;;;4174978;28;19909;-85
2022/07/07 07:21:53;;;;;;;;;;;16.60;72.70;;;;;;4173614;28;19954;-87
2022/07/07 07:24:14;;;;;;;;;;;16.70;72.80;;;;;;4159655;28;19917;-86
2022/07/07 07:26:35;;;;;;;;;;;16.70;72.70;;;;;;4177476;28;19940;-83
2022/07/07 07:28:56;;;;;;;;;;;16.70;72.70;;;;;;4176130;28;19948;-86
2022/07/07 07:31:17;;;;;;;;;;;16.70;72.70;;;;;;4176761;28;19913;-85
2022/07/07 07:33:38;;;;;;;;;;;16.70;72.70;;;;;;4179973;28;19931;-85
2022/07/07 07:35:59;;;;;;;;;;;16.70;72.30;;;;;;4175341;28;19917;-85
2022/07/07 07:38:20;;;;;;;;;;;16.70;72.30;;;;;;4175932;28;20011;-85
2022/07/07 07:40:41;;;;;;;;;;;16.70;72.40;;;;;;4181576;28;19916;-84
2022/07/07 07:43:02;;;;;;;;;;;16.70;72.30;;;;;;4174834;28;19916;-83
2022/07/07 07:45:24;;;;;;;;;;;16.80;72.60;;;;;;4174968;28;19975;-84
2022/07/07 07:47:46;;;;;;;;;;;16.80;71.80;;;;;;4172296;28;20656;-83
2022/07/07 07:50:07;;;;;;;;;;;16.90;71.90;;;;;;4163930;28;20002;-84
2022/07/07 07:52:28;;;;;;;;;;;16.90;71.70;;;;;;4183059;28;20575;-85
2022/07/07 07:54:49;;;;;;;;;;;16.90;71.40;;;;;;4177934;28;19913;-85
2022/07/07 07:57:11;;;;;;;;;;;17.00;71.40;;;;;;4173676;28;19975;-82
2022/07/07 07:59:32;;;;;;;;;;;17.10;71.30;;;;;;4178210;28;19975;-86
2022/07/07 08:01:52;;;;;;;;;;;17.10;70.30;;;;;;4179626;28;19969;-85
2022/07/07 08:04:13;;;;;;;;;;;17.10;69.40;;;;;;4166682;28;19920;-86
2022/07/07 08:06:34;;;;;;;;;;;17.10;69.20;;;;;;4163866;28;19916;-86
2022/07/07 08:08:55;;;;;;;;;;;17.10;68.60;;;;;;4168266;28;20055;-86
2022/07/07 08:11:16;;;;;;;;;;;17.10;68.30;;;;;;4179832;28;20966;-85
2022/07/07 08:13:37;;;;;;;;;;;17.00;68.50;;;;;;4169012;28;20100;-85
2022/07/07 08:15:58;;;;;;;;;;;17.00;68.80;;;;;;4183254;28;19912;-85
2022/07/07 08:18:18;;;;;;;;;;;17.00;69.20;;;;;;4178110;28;19912;-86
2022/07/07 08:20:39;;;;;;;;;;;17.10;69.80;;;;;;4164769;28;19927;-85
2022/07/07 08:23:01;;;;;;;;;;;17.10;70.30;;;;;;4166287;28;19999;-85
2022/07/07 08:25:21;;;;;;;;;;;17.20;70.70;;;;;;4173775;28;19927;-85
2022/07/07 08:27:42;;;;;;;;;;;17.30;70.50;;;;;;4179513;28;19948;-87
2022/07/07 08:30:05;;;;;;;;;;;17.40;69.80;;;;;;4181754;28;19912;-86
2022/07/07 08:32:26;;;;;;;;;;;17.50;69.70;;;;;;4182647;28;19915;-85
2022/07/07 08:34:47;;;;;;;;;;;17.50;69.00;;;;;;4181069;28;20007;-86
2022/07/07 08:37:08;;;;;;;;;;;17.60;68.80;;;;;;4178655;28;19912;-85
2022/07/07 08:39:29;;;;;;;;;;;17.60;68.20;;;;;;4164480;28;19923;-87
2022/07/07 08:41:51;;;;;;;;;;;17.70;68.30;;;;;;4182150;28;19916;-87
2022/07/07 08:44:12;;;;;;;;;;;17.70;68.10;;;;;;4163989;28;19979;-88
2022/07/07 08:46:33;;;;;;;;;;;17.70;67.80;;;;;;4172374;28;19957;-87
2022/07/07 08:48:54;;;;;;;;;;;17.70;67.20;;;;;;4176752;28;19917;-88
2022/07/07 08:51:15;;;;;;;;;;;17.70;68.30;;;;;;4187752;28;20024;-87
2022/07/07 08:53:37;;;;;;;;;;;17.70;67.80;;;;;;4181437;28;20399;-85
2022/07/07 08:56:00;;;;;;;;;;;17.80;68.30;;;;;;4166367;28;19951;-87
2022/07/07 08:58:21;;;;;;;;;;;17.80;68.50;;;;;;4176085;28;19909;-87
2022/07/07 09:00:42;;;;;;;;;;;17.90;68.40;;;;;;4174023;28;19923;-87
2022/07/07 09:03:05;;;;;;;;;;;18.00;68.80;;;;;;4179099;28;19920;-86
2022/07/07 09:05:27;;;;;;;;;;;18.00;67.60;;;;;;4187030;28;19970;-86
2022/07/07 09:07:49;;;;;;;;;;;18.10;67.80;;;;;;4165639;28;19915;-87
2022/07/07 09:10:10;;;;;;;;;;;18.20;67.30;;;;;;4171292;28;20012;-86
2022/07/07 09:12:32;;;;;;;;;;;18.30;67.40;;;;;;4173544;28;20380;-87
2022/07/07 09:14:53;;;;;;;;;;;18.40;67.10;;;;;;4183308;28;20272;-87
2022/07/07 09:17:25;;;;;;;;;;;18.50;66.60;;;;;;4178528;28;20220;-89
2022/07/07 09:19:57;;;;;;;;;;;18.50;66.60;;;;;;4181960;28;19913;-88
2022/07/07 09:22:18;;;;;;;;;;;18.70;66.50;;;;;;4182869;28;19909;-88
2022/07/07 09:24:51;;;;;;;;;;;18.70;65.40;;;;;;4175809;28;19934;-86
2022/07/07 09:27:12;;;;;;;;;;;18.80;65.20;;;;;;4179377;28;20018;-86
2022/07/07 09:29:33;;;;;;;;;;;18.80;63.90;;;;;;4181447;28;20110;-86
2022/07/07 09:31:55;;;;;;;;;;;18.70;63.20;;;;;;4177908;28;19945;-86
2022/07/07 09:34:18;;;;;;;;;;;18.60;62.70;;;;;;4175411;23;20406;-86
2022/07/07 09:39:19;;;;;;;;;;;18.50;62.80;;;;;;4173703;28;19951;-89
2022/07/07 09:41:39;;;;;;;;;;;18.30;62.50;;;;;;4157380;28;20535;-86
2022/07/07 09:44:13;;;;;;;;;;;18.30;63.20;;;;;;4184702;28;20377;-87
2022/07/07 09:46:38;;;;;;;;;;;18.20;63.40;;;;;;4172039;28;19952;-86
2022/07/07 09:48:59;;;;;;;;;;;18.10;63.70;;;;;;4186568;28;20461;-85
2022/07/07 09:51:28;;;;;;;;;;;18.10;64.20;;;;;;4175659;28;20589;-85
2022/07/07 09:53:52;;;;;;;;;;;18.00;65.00;;;;;;4265518;23;19931;-85
2022/07/07 09:56:13;;;;;;;;;;;18.00;65.50;;;;;;4172495;28;19928;-86
2022/07/07 09:58:57;;;;;;;;;;;18.00;65.30;;;;;;4173700;28;20263;-86
2022/07/07 10:01:38;;;;;;;;;;;18.10;65.10;;;;;;4168667;28;19944;-85
2022/07/07 10:04:01;;;;;;;;;;;18.00;64.60;;;;;;4196226;23;19928;-88
2022/07/07 10:06:31;;;;;;;;;;;18.00;64.70;;;;;;4170608;28;20436;-92
2022/07/07 10:09:01;;;;;;;;;;;18.00;64.60;;;;;;4156686;28;19919;-89
2022/07/07 10:11:29;;;;;;;;;;;18.00;63.30;;;;;;4160323;28;19966;-90
2022/07/07 10:13:51;;;;;;;;;;;18.10;63.50;;;;;;4181372;28;20034;-91
2022/07/07 10:16:12;;;;;;;;;;;18.00;62.90;;;;;;4179141;28;19913;-91
2022/07/07 10:18:33;;;;;;;;;;;18.00;62.90;;;;;;4171334;28;19916;-90
2022/07/07 10:20:54;;;;;;;;;;;18.00;62.70;;;;;;4180723;28;19919;-88
2022/07/07 10:23:16;;;;;;;;;;;17.90;62.30;;;;;;4162960;28;20320;-89
2022/07/07 10:25:39;;;;;;;;;;;17.80;62.30;;;;;;4182571;28;20012;-90
2022/07/07 10:28:00;;;;;;;;;;;17.80;61.70;;;;;;4182038;28;19909;-91
2022/07/07 10:30:31;;;;;;;;;;;17.70;61.50;;;;;;4165330;28;19913;-90
2022/07/07 10:32:56;;;;;;;;;;;17.60;61.20;;;;;;4182270;28;19920;-90
2022/07/07 10:35:19;;;;;;;;;;;17.60;61.30;;;;;;4166230;28;20388;-89
2022/07/07 10:37:47;;;;;;;;;;;17.40;61.50;;;;;;4167313;28;19968;-90
2022/07/07 10:40:11;;;;;;;;;;;17.40;61.70;;;;;;4176958;28;20441;-90
2022/07/07 10:42:38;;;;;;;;;;;17.40;61.60;;;;;;4158756;28;20613;-88
2022/07/07 10:44:59;;;;;;;;;;;17.30;61.10;;;;;;4169393;28;19960;-87
2022/07/07 10:47:20;;;;;;;;;;;17.30;60.60;;;;;;4178684;28;19955;-88
2022/07/07 10:49:45;;;;;;;;;;;17.30;61.00;;;;;;4162516;28;19974;-89
2022/07/07 10:52:12;;;;;;;;;;;17.30;61.30;;;;;;4163004;28;19963;-88
2022/07/07 10:54:38;;;;;;;;;;;17.30;61.00;;;;;;4168522;28;19919;-91
2022/07/07 10:56:59;;;;;;;;;;;17.30;60.90;;;;;;4175744;28;19908;-87
2022/07/07 10:59:21;;;;;;;;;;;17.30;60.40;;;;;;4167877;28;19916;-88
2022/07/07 11:02:00;;;;;;;;;;;17.20;59.90;;;;;;4176016;28;19917;-89
2022/07/07 11:04:43;;;;;;;;;;;17.20;60.30;;;;;;4175760;28;20391;-88
2022/07/07 11:07:17;;;;;;;;;;;17.20;59.90;;;;;;4175184;28;19920;-87
2022/07/07 11:09:59;;;;;;;;;;;17.30;60.30;;;;;;4161820;28;19919;-88
2022/07/07 11:12:32;;;;;;;;;;;17.20;59.60;;;;;;4173517;28;19999;-85
2022/07/07 11:15:12;;;;;;;;;;;17.20;58.90;;;;;;4180339;28;20425;-86
2022/07/07 11:17:35;;;;;;;;;;;17.10;58.90;;;;;;4185066;28;19917;-85
2022/07/07 11:19:58;;;;;;;;;;;17.10;59.20;;;;;;4183219;28;19916;-89
2022/07/07 11:22:19;;;;;;;;;;;17.10;59.10;;;;;;4165873;28;19917;-86
2022/07/07 11:24:40;;;;;;;;;;;17.10;59.20;;;;;;4180567;28;19978;-86
2022/07/07 11:27:02;;;;;;;;;;;17.10;59.20;;;;;;4183082;28;20248;-88
2022/07/07 11:29:23;;;;;;;;;;;17.10;59.50;;;;;;4177154;28;20796;-86
2022/07/07 11:31:44;;;;;;;;;;;17.10;59.40;;;;;;4184118;28;19999;-86
2022/07/07 11:34:05;;;;;;;;;;;17.10;59.80;;;;;;4175802;28;19922;-86
2022/07/07 11:36:28;;;;;;;;;;;17.10;59.90;;;;;;4178330;28;19919;-87
2022/07/07 11:39:07;;;;;;;;;;;17.10;59.90;;;;;;4178412;28;19916;-87
2022/07/07 11:41:41;;;;;;;;;;;17.10;59.70;;;;;;4177985;28;19919;-87
2022/07/07 11:44:02;;;;;;;;;;;17.10;59.70;;;;;;4162232;28;19916;-94
2022/07/07 11:46:24;;;;;;;;;;;17.10;59.70;;;;;;4176869;28;19921;-87
2022/07/07 11:48:45;;;;;;;;;;;17.10;59.90;;;;;;4170466;28;20588;-93
2022/07/07 11:51:06;;;;;;;;;;;17.10;59.60;;;;;;4155801;28;19927;-87
2022/07/07 11:53:27;;;;;;;;;;;17.10;59.50;;;;;;4165425;28;20675;-88
2022/07/07 11:55:47;;;;;;;;;;;17.10;59.50;;;;;;4173812;28;19916;-87
2022/07/07 11:58:09;;;;;;;;;;;17.10;59.60;;;;;;4164024;28;19999;-85
2022/07/07 12:00:32;;;;;;;;;;;17.10;59.80;;;;;;4154863;28;20412;-86
2022/07/07 12:02:55;;;;;;;;;;;17.00;59.30;;;;;;4170461;28;19912;-84
2022/07/07 12:05:17;;;;;;;;;;;17.00;59.50;;;;;;4175640;28;20545;-87
2022/07/07 12:07:38;;;;;;;;;;;17.10;59.60;;;;;;4174966;28;19912;-86
2022/07/07 12:09:59;;;;;;;;;;;17.10;59.20;;;;;;4161271;28;19916;-90
2022/07/07 12:12:20;;;;;;;;;;;17.10;59.40;;;;;;4157611;28;19916;-90
2022/07/07 12:14:42;;;;;;;;;;;17.10;59.40;;;;;;4178230;28;20331;-89
2022/07/07 12:17:03;;;;;;;;;;;17.20;58.90;;;;;;4173414;28;19913;-87
2022/07/07 12:19:24;;;;;;;;;;;17.20;58.70;;;;;;4174958;28;20156;-88
2022/07/07 12:21:46;;;;;;;;;;;17.20;58.90;;;;;;4165509;28;19913;-87
2022/07/07 12:24:07;;;;;;;;;;;17.20;58.60;;;;;;4165594;28;19919;-88
2022/07/07 12:26:28;;;;;;;;;;;17.30;58.40;;;;;;4162006;28;19916;-88
2022/07/07 12:28:49;;;;;;;;;;;17.30;58.80;;;;;;4162332;28;19909;-87
2022/07/07 12:31:17;;;;;;;;;;;17.40;58.40;;;;;;4166015;28;19916;-92
2022/07/07 12:33:39;;;;;;;;;;;17.40;58.20;;;;;;4178128;28;19966;-90
2022/07/07 12:36:16;;;;;;;;;;;17.40;57.20;;;;;;4179855;28;19908;-91
2022/07/07 12:38:39;;;;;;;;;;;17.40;57.00;;;;;;4180759;28;20281;-89
2022/07/07 12:41:00;;;;;;;;;;;17.50;57.50;;;;;;4165034;28;19921;-92
2022/07/07 12:43:30;;;;;;;;;;;17.60;57.80;;;;;;4176257;28;19923;-93
2022/07/07 12:46:03;;;;;;;;;;;17.60;57.60;;;;;;4167904;28;20019;-91
2022/07/07 12:48:30;;;;;;;;;;;17.80;57.60;;;;;;4183256;28;20061;-92
2022/07/07 12:51:01;;;;;;;;;;;17.80;57.70;;;;;;4178411;28;19959;-91
2022/07/07 12:53:22;;;;;;;;;;;17.90;57.20;;;;;;4165450;28;19942;-89
2022/07/07 12:55:44;;;;;;;;;;;18.00;56.80;;;;;;4173556;28;20276;-90
2022/07/07 12:58:19;;;;;;;;;;;18.00;56.30;;;;;;4166196;28;19917;-89
2022/07/07 13:00:59;;;;;;;;;;;18.10;56.30;;;;;;4183321;28;19912;-91
2022/07/07 13:03:31;;;;;;;;;;;18.20;56.00;;;;;;4174845;28;20534;-92
2022/07/07 13:05:55;;;;;;;;;;;18.20;56.40;;;;;;4180748;28;19920;-92
2022/07/07 13:08:19;;;;;;;;;;;18.20;56.60;;;;;;4163145;28;19913;-90
2022/07/07 13:10:40;;;;;;;;;;;18.30;55.80;;;;;;4177586;28;19924;-90
2022/07/07 13:13:01;;;;;;;;;;;18.30;56.00;;;;;;4166588;28;19913;-90
2022/07/07 13:15:22;;;;;;;;;;;18.30;55.40;;;;;;4179571;28;19916;-89
2022/07/07 13:17:44;;;;;;;;;;;18.40;55.60;;;;;;4170124;28;20281;-92
2022/07/07 13:20:05;;;;;;;;;;;18.40;55.20;;;;;;4180560;28;19909;-92
2022/07/07 13:22:26;;;;;;;;;;;18.40;55.00;;;;;;4169338;28;20323;-90
2022/07/07 13:24:56;;;;;;;;;;;18.50;55.40;;;;;;4169568;28;19913;-91
2022/07/07 13:27:17;;;;;;;;;;;18.50;55.70;;;;;;4167779;28;20364;-89
2022/07/07 13:29:38;;;;;;;;;;;18.50;55.30;;;;;;4183212;28;19908;-91
2022/07/07 13:31:59;;;;;;;;;;;18.60;55.50;;;;;;4179968;28;19920;-89
2022/07/07 13:34:20;;;;;;;;;;;18.60;55.40;;;;;;4167316;28;20322;-91
2022/07/07 13:36:41;;;;;;;;;;;18.60;55.10;;;;;;4181034;28;19908;-91
2022/07/07 13:39:02;;;;;;;;;;;18.60;54.90;;;;;;4163106;28;19924;-88
2022/07/07 13:41:23;;;;;;;;;;;18.60;54.90;;;;;;4179607;28;20483;-90
2022/07/07 13:43:46;;;;;;;;;;;18.60;55.20;;;;;;4181897;28;19912;-89
2022/07/07 13:46:32;;;;;;;;;;;18.60;55.20;;;;;;4167880;28;19920;-89
2022/07/07 13:48:53;;;;;;;;;;;18.60;55.30;;;;;;4181808;28;19915;-90
2022/07/07 13:51:14;;;;;;;;;;;18.60;55.00;;;;;;4182646;28;20129;-90
2022/07/07 13:53:43;;;;;;;;;;;18.60;54.80;;;;;;4169092;28;19997;-91
2022/07/07 13:56:07;;;;;;;;;;;18.50;55.10;;;;;;4168571;28;19908;-91